This is the latest recevied weather packets stored in our database for station/object F5MAP-5. If no packets are shown the sender has not sent any weather packets the latest 10 day(s).
| Time | Temp. | Humidity | Pressure | Rain* | Wind** | Luminosity | Snow |
|---|---|---|---|---|---|---|---|
| 1787667129 | 24.44° C | 68% | 1012.3 hPa | 0 mm | - | 146 W/m² | - |
| 1787666530 | 25° C | 67% | 1012.4 hPa | 0 mm | - | 97 W/m² | - |
| 1787665930 | 25° C | 67% | 1012.4 hPa | 0 mm | - | 81 W/m² | - |
| 1787665329 | 25° C | 67% | 1012.5 hPa | 0 mm | - | 88 W/m² | - |
| 1787664729 | 25° C | 67% | 1012.6 hPa | 0 mm | - | 132 W/m² | - |
| 1787664129 | 25° C | 67% | 1012.6 hPa | 0 mm | - | 722 W/m² | - |
| 1787663529 | 25° C | 69% | 1012.6 hPa | 0 mm | - | 793 W/m² | - |
| 1787662929 | 25° C | 70% | 1012.6 hPa | 0 mm | - | 715 W/m² | - |
| 1787662334 | 24.44° C | 73% | 1012.6 hPa | 0 mm | - | 898 W/m² | - |
| 1787661734 | 23.89° C | 73% | 1012.7 hPa | 0 mm | - | 689 W/m² | - |
| 1787661134 | 23.33° C | 75% | 1012.8 hPa | 0 mm | - | 457 W/m² | - |
| 1787660534 | 23.33° C | 75% | 1012.8 hPa | 0 mm | - | 230 W/m² | - |
| 1787659934 | 23.33° C | 77% | 1012.8 hPa | 0 mm | - | 348 W/m² | - |
| 1787658734 | 22.22° C | 81% | 1012.8 hPa | 0 mm | - | 392 W/m² | - |
| 1787658133 | 21.67° C | 82% | 1012.8 hPa | 0 mm | - | 301 W/m² | - |
| 1787657534 | 21.67° C | 83% | 1012.8 hPa | 0 mm | - | 211 W/m² | - |
| 1787656934 | 21.11° C | 84% | 1012.7 hPa | 0 mm | - | 292 W/m² | - |
| 1787656333 | 21.11° C | 85% | 1012.7 hPa | 0 mm | - | 241 W/m² | - |
| 1787655734 | 20.56° C | 87% | 1012.8 hPa | 0 mm | - | 380 W/m² | - |
| 1787655134 | 20° C | 88% | 1012.9 hPa | 0 mm | - | 304 W/m² | - |
| 1787654533 | 20° C | 89% | 1012.8 hPa | 0 mm | - | 378 W/m² | - |
| 1787653934 | 19.44° C | 90% | 1012.8 hPa | 0 mm | - | 260 W/m² | - |
| 1787653333 | 19.44° C | 91% | 1012.8 hPa | 0 mm | - | 371 W/m² | - |
| 1787652733 | 18.89° C | 92% | 1013 hPa | 0 mm | - | 223 W/m² | - |
| 1787652133 | 18.89° C | 92% | 1012.9 hPa | 0 mm | - | 446 W/m² | - |
* Rain latest hour (hover to see other rain measurements)
** Current wind speed in m/s (hover to see current wind gust speed)